Terminal Aerodrome Forecast
Issued by NWS St Louis, MO

Home | Current Version | Previous Version | Text Only | Print | Product List | Glossary On
Versions: 1 2 3 4 5 6 7 8 9 10 11 12 13 14 15 16 17 18 19 20 21 22 23
000
FTUS43 KLSX 180200 AAB
TAFCOU
TAF AMD
KCOU 180231Z 1803/1824 VRB03KT 6SM BR SCT012 OVC035
     FM180900 VRB03KT 2SM BR OVC005
     FM181700 19006KT P6SM SCT015=

USA.gov is the U.S. government's official web portal to all federal, state and local government web resources and services.